createdAt,value
2023-10-06T00:01:57.728Z,2.60
2023-10-06T00:04:27.764Z,2.40
2023-10-06T00:07:07.362Z,2.50
2023-10-06T00:09:37.881Z,2.50
2023-10-06T00:12:08.484Z,2.50
2023-10-06T00:14:41.296Z,2.60
2023-10-06T00:17:12.858Z,2.80
2023-10-06T00:19:42.767Z,2.90
2023-10-06T00:22:18.678Z,2.50
2023-10-06T00:24:51.341Z,2.20
2023-10-06T00:27:26.004Z,2.30
2023-10-06T00:29:56.358Z,2.80
2023-10-06T00:32:27.982Z,2.70
2023-10-06T00:35:12.969Z,2.50
2023-10-06T00:37:43.390Z,2.60
2023-10-06T00:40:20.836Z,2.50
2023-10-06T00:42:57.918Z,2.40
2023-10-06T00:45:31.631Z,3.20
2023-10-06T00:48:06.154Z,2.70
2023-10-06T00:50:36.560Z,3.00
2023-10-06T00:53:06.643Z,2.70
2023-10-06T00:55:36.837Z,2.70
2023-10-06T00:58:09.859Z,2.80
2023-10-06T01:00:40.981Z,2.80
2023-10-06T01:03:16.009Z,2.60
2023-10-06T01:05:47.026Z,2.80
2023-10-06T01:08:17.452Z,2.90
2023-10-06T01:10:52.411Z,2.70
2023-10-06T01:13:23.861Z,2.80
2023-10-06T01:15:57.607Z,2.60
2023-10-06T01:18:35.133Z,2.70
2023-10-06T01:21:18.305Z,2.30
2023-10-06T01:23:49.414Z,2.70
2023-10-06T01:26:19.269Z,2.30
2023-10-06T01:28:49.182Z,2.30
2023-10-06T01:31:22.288Z,2.40
2023-10-06T01:33:52.666Z,2.40
2023-10-06T01:36:24.304Z,2.50
2023-10-06T01:38:54.425Z,2.40
2023-10-06T01:41:27.625Z,3.00
2023-10-06T01:43:58.024Z,2.40
2023-10-06T01:46:29.589Z,2.40
2023-10-06T01:49:02.306Z,2.30
2023-10-06T01:51:36.950Z,2.30
2023-10-06T01:54:08.402Z,2.40
2023-10-06T01:56:38.490Z,2.10
2023-10-06T01:59:08.715Z,2.00
2023-10-06T02:01:42.373Z,2.50
2023-10-06T02:04:12.884Z,2.70
2023-10-06T02:06:43.244Z,2.30
2023-10-06T02:09:26.582Z,2.10
2023-10-06T02:11:56.872Z,2.60
2023-10-06T02:14:26.844Z,2.30
2023-10-06T02:16:57.027Z,2.60
2023-10-06T02:19:30.038Z,2.30
2023-10-06T02:22:00.846Z,2.30
2023-10-06T02:24:30.662Z,2.80
2023-10-06T02:27:04.058Z,2.20
2023-10-06T02:29:33.991Z,2.30
2023-10-06T02:32:08.734Z,2.30
2023-10-06T02:34:40.695Z,2.00
2023-10-06T02:37:11.536Z,2.30
2023-10-06T02:39:44.640Z,2.60
2023-10-06T02:42:15.821Z,2.30
2023-10-06T02:44:46.547Z,2.00
2023-10-06T02:47:17.209Z,2.00
2023-10-06T02:49:51.218Z,2.10
2023-10-06T02:52:22.476Z,2.20
2023-10-06T02:55:19.005Z,2.30
2023-10-06T02:57:57.245Z,2.00
2023-10-06T03:00:30.530Z,1.90
2023-10-06T03:03:13.961Z,2.00
2023-10-06T03:05:50.995Z,2.20
2023-10-06T03:08:28.931Z,1.90
2023-10-06T03:10:59.043Z,1.80
2023-10-06T03:13:44.647Z,2.10
2023-10-06T03:16:20.963Z,1.90
2023-10-06T03:18:53.667Z,1.90
2023-10-06T03:21:23.844Z,1.80
2023-10-06T03:24:06.543Z,1.70
2023-10-06T03:26:45.175Z,1.80
2023-10-06T03:29:29.538Z,2.20
2023-10-06T03:32:00.143Z,1.90
2023-10-06T03:34:30.281Z,1.90
2023-10-06T03:37:00.551Z,2.10
2023-10-06T03:39:32.453Z,2.30
2023-10-06T03:42:08.329Z,2.50
2023-10-06T03:44:38.438Z,2.10
2023-10-06T03:47:09.932Z,1.70
2023-10-06T03:49:41.673Z,1.90
2023-10-06T03:52:12.236Z,2.00
2023-10-06T03:54:43.004Z,2.00
2023-10-06T03:57:16.374Z,2.00
2023-10-06T03:59:46.537Z,2.00
2023-10-06T04:02:16.810Z,1.90
2023-10-06T04:04:46.812Z,1.70
2023-10-06T04:07:17.272Z,2.10
2023-10-06T04:09:50.547Z,1.60
2023-10-06T04:12:20.563Z,1.90
2023-10-06T04:14:51.314Z,1.70
2023-10-06T04:17:22.902Z,1.60
2023-10-06T04:19:53.261Z,1.80
2023-10-06T04:22:23.272Z,1.80
2023-10-06T04:24:53.302Z,2.10
2023-10-06T04:27:23.150Z,1.80
2023-10-06T04:29:54.003Z,1.80
2023-10-06T04:32:26.266Z,1.60
2023-10-06T04:34:56.716Z,1.90
2023-10-06T04:37:27.277Z,1.50
2023-10-06T04:39:57.478Z,1.60
2023-10-06T04:42:28.875Z,1.60
2023-10-06T04:44:58.874Z,1.60
2023-10-06T04:47:32.294Z,1.50
2023-10-06T04:50:02.202Z,1.40
2023-10-06T04:52:32.612Z,1.60
2023-10-06T04:55:04.677Z,1.40
2023-10-06T04:57:34.815Z,1.60
2023-10-06T05:00:14.271Z,1.80
2023-10-06T05:02:45.116Z,1.50
2023-10-06T05:05:15.352Z,1.40
2023-10-06T05:07:46.972Z,1.60
2023-10-06T05:10:23.123Z,1.50
2023-10-06T05:12:53.108Z,1.50
2023-10-06T05:15:27.543Z,1.20
2023-10-06T05:17:57.586Z,1.60
2023-10-06T05:20:30.966Z,1.60
2023-10-06T05:23:08.467Z,1.50
2023-10-06T05:25:38.897Z,1.50
2023-10-06T05:28:11.638Z,1.40
2023-10-06T05:30:43.350Z,1.60
2023-10-06T05:33:15.659Z,1.40
2023-10-06T05:35:47.068Z,1.30
2023-10-06T05:38:17.398Z,1.30
2023-10-06T05:40:49.256Z,1.50
2023-10-06T05:43:19.421Z,1.50
2023-10-06T05:45:53.425Z,1.30
2023-10-06T05:48:24.414Z,1.50
2023-10-06T05:51:02.530Z,1.40
2023-10-06T05:53:39.627Z,1.80
2023-10-06T05:56:09.930Z,1.50
2023-10-06T05:58:41.610Z,1.50
2023-10-06T06:01:14.337Z,1.30
2023-10-06T06:03:48.291Z,1.50
2023-10-06T06:06:24.468Z,1.10
2023-10-06T06:08:57.399Z,1.50
2023-10-06T06:11:29.098Z,1.40
2023-10-06T06:14:15.210Z,1.20
2023-10-06T06:16:47.326Z,1.50
2023-10-06T06:19:17.327Z,1.40
2023-10-06T06:21:48.061Z,1.40
2023-10-06T06:24:21.458Z,1.20
2023-10-06T06:26:52.017Z,1.20
2023-10-06T06:29:22.060Z,1.40
2023-10-06T06:31:54.152Z,0.90
2023-10-06T06:34:24.410Z,1.40
2023-10-06T06:36:54.803Z,0.90
2023-10-06T06:39:24.645Z,1.30
2023-10-06T06:41:54.804Z,1.30
2023-10-06T06:44:27.139Z,1.10
2023-10-06T06:46:57.217Z,1.10
2023-10-06T06:49:28.007Z,1.00
2023-10-06T06:52:00.899Z,1.20
2023-10-06T06:54:37.860Z,1.30
2023-10-06T06:57:07.820Z,1.00
2023-10-06T06:59:40.196Z,1.00
2023-10-06T07:02:13.276Z,1.10
2023-10-06T07:04:43.364Z,1.00
2023-10-06T07:07:14.376Z,1.10
2023-10-06T07:09:44.539Z,1.10
2023-10-06T07:12:14.441Z,1.00
2023-10-06T07:14:44.477Z,1.00
2023-10-06T07:17:14.547Z,0.80
2023-10-06T07:19:44.996Z,0.90
2023-10-06T07:22:16.806Z,1.00
2023-10-06T07:24:48.259Z,1.00
2023-10-06T07:27:18.699Z,0.90
2023-10-06T07:29:49.017Z,1.10
2023-10-06T07:32:19.446Z,0.70
2023-10-06T07:34:51.915Z,1.10
2023-10-06T07:37:22.742Z,0.80
2023-10-06T07:39:52.645Z,1.20
2023-10-06T07:42:22.594Z,0.80
2023-10-06T07:44:52.714Z,0.90
2023-10-06T07:47:25.630Z,0.90
2023-10-06T07:49:55.744Z,1.00
2023-10-06T07:52:25.752Z,0.60
2023-10-06T07:54:55.924Z,0.60
2023-10-06T07:57:26.404Z,0.80
2023-10-06T07:59:58.827Z,0.60
2023-10-06T08:02:30.409Z,0.90
2023-10-06T08:05:00.870Z,0.80
2023-10-06T08:07:31.956Z,0.60
2023-10-06T08:10:04.549Z,0.90
2023-10-06T08:12:35.126Z,0.90
2023-10-06T08:15:10.672Z,0.80
2023-10-06T08:17:40.816Z,0.70
2023-10-06T08:20:13.622Z,1.00
2023-10-06T08:22:47.656Z,0.80
2023-10-06T08:25:18.270Z,0.90
2023-10-06T08:27:49.979Z,0.70
2023-10-06T08:30:20.457Z,0.70
2023-10-06T08:32:53.283Z,0.90
2023-10-06T08:35:23.765Z,0.60
2023-10-06T08:37:54.025Z,0.60
2023-10-06T08:40:24.685Z,0.70
2023-10-06T08:42:55.446Z,0.80
2023-10-06T08:45:26.634Z,0.60
2023-10-06T08:48:03.871Z,0.70
2023-10-06T08:50:35.067Z,0.70
2023-10-06T08:53:06.904Z,0.60
2023-10-06T08:55:37.624Z,0.60
2023-10-06T08:58:14.906Z,0.70
2023-10-06T09:00:45.674Z,0.70
2023-10-06T09:03:16.291Z,0.60
2023-10-06T09:05:46.483Z,0.70
2023-10-06T09:08:16.820Z,0.60
2023-10-06T09:10:50.855Z,0.70
2023-10-06T09:13:22.749Z,0.90
2023-10-06T09:16:07.879Z,0.90
2023-10-06T09:18:41.125Z,0.60
2023-10-06T09:21:14.798Z,0.70
2023-10-06T09:23:44.855Z,1.00
2023-10-06T09:26:27.824Z,0.70
2023-10-06T09:29:02.726Z,0.50
2023-10-06T09:31:39.876Z,0.70
2023-10-06T09:34:11.289Z,0.70
2023-10-06T09:36:46.118Z,0.70
2023-10-06T09:39:20.892Z,0.60
2023-10-06T09:41:51.600Z,0.80
2023-10-06T09:44:22.571Z,0.70
2023-10-06T09:46:55.147Z,0.70
2023-10-06T09:49:25.601Z,0.90
2023-10-06T09:51:57.437Z,0.70
2023-10-06T09:54:27.743Z,0.80
2023-10-06T09:56:58.131Z,0.90
2023-10-06T09:59:28.251Z,0.70
2023-10-06T10:01:59.001Z,0.70
2023-10-06T10:04:30.868Z,0.80
2023-10-06T10:07:03.410Z,0.70
2023-10-06T10:12:31.959Z,0.60
2023-10-06T10:15:13.230Z,0.70
2023-10-06T10:17:46.127Z,0.70
2023-10-06T10:20:17.237Z,0.70
2023-10-06T10:22:47.257Z,1.00
2023-10-06T10:25:25.347Z,0.80
2023-10-06T10:28:15.229Z,0.70
2023-10-06T10:30:52.574Z,0.90
2023-10-06T10:33:26.754Z,0.50
2023-10-06T10:36:23.867Z,0.90
2023-10-06T10:39:14.155Z,0.70
2023-10-06T10:41:44.097Z,1.00
2023-10-06T10:44:26.182Z,0.60
2023-10-06T10:47:02.966Z,0.90
2023-10-06T10:49:34.417Z,0.70
2023-10-06T10:52:06.781Z,0.70
2023-10-06T10:54:37.121Z,0.90
2023-10-06T10:57:11.034Z,0.70
2023-10-06T11:00:10.777Z,0.60
2023-10-06T11:03:01.129Z,0.60
2023-10-06T11:05:32.557Z,0.80
2023-10-06T11:11:00.922Z,0.80
2023-10-06T11:13:48.336Z,0.70
2023-10-06T11:16:26.045Z,1.00
2023-10-06T11:18:57.795Z,0.70
2023-10-06T11:21:28.235Z,0.60
2023-10-06T11:23:59.467Z,0.80
2023-10-06T11:26:32.915Z,0.80
2023-10-06T11:29:03.251Z,0.70
2023-10-06T11:31:34.001Z,0.70
2023-10-06T11:34:04.365Z,0.60
2023-10-06T11:36:34.750Z,0.70
2023-10-06T11:39:05.083Z,0.80
2023-10-06T11:41:34.977Z,0.70
2023-10-06T11:44:05.418Z,0.70
2023-10-06T11:52:02.098Z,0.90
2023-10-06T11:54:33.401Z,0.80
2023-10-06T11:57:04.274Z,0.70
2023-10-06T11:59:34.531Z,0.70
2023-10-06T12:02:10.415Z,0.60
2023-10-06T12:04:40.700Z,0.80
2023-10-06T12:07:10.901Z,0.80
2023-10-06T12:09:41.066Z,0.80
2023-10-06T12:12:11.033Z,0.90
2023-10-06T12:14:41.159Z,0.60
2023-10-06T12:17:13.407Z,0.60
2023-10-06T12:19:43.539Z,0.60
2023-10-06T12:22:17.224Z,0.60
2023-10-06T12:24:49.836Z,0.80
2023-10-06T12:27:19.717Z,0.60
2023-10-06T12:29:50.217Z,1.10
2023-10-06T12:32:20.130Z,0.70
2023-10-06T12:34:50.503Z,0.90
2023-10-06T12:37:20.431Z,0.90
2023-10-06T12:39:53.130Z,0.60
2023-10-06T12:42:23.216Z,0.80
2023-10-06T12:44:53.939Z,0.70
2023-10-06T12:47:24.212Z,0.80
2023-10-06T12:49:54.212Z,1.00
2023-10-06T12:52:24.527Z,0.90
2023-10-06T12:54:55.626Z,0.80
2023-10-06T12:57:26.561Z,0.70
2023-10-06T12:59:58.403Z,0.80
2023-10-06T13:02:28.814Z,0.90
2023-10-06T13:04:59.210Z,0.60
2023-10-06T13:07:32.288Z,0.70
2023-10-06T13:10:07.500Z,0.80
2023-10-06T13:12:41.394Z,0.70
2023-10-06T13:15:18.813Z,0.80
2023-10-06T13:17:49.895Z,0.70
2023-10-06T13:20:20.046Z,0.80
2023-10-06T13:22:50.568Z,0.80
2023-10-06T13:25:20.602Z,0.70
2023-10-06T13:27:50.890Z,0.70
2023-10-06T13:30:23.532Z,1.40
2023-10-06T13:32:58.464Z,0.70
2023-10-06T13:35:29.165Z,0.70
2023-10-06T13:37:59.876Z,0.90
2023-10-06T13:40:30.658Z,1.10
2023-10-06T13:43:01.238Z,0.70
2023-10-06T13:45:32.351Z,0.80
2023-10-06T13:48:05.260Z,0.60
2023-10-06T13:50:37.859Z,0.90
2023-10-06T13:53:09.541Z,0.60
2023-10-06T13:55:40.502Z,0.80
2023-10-06T13:58:10.847Z,0.80
2023-10-06T14:00:41.968Z,0.90
2023-10-06T14:03:15.862Z,0.90
2023-10-06T14:05:57.485Z,0.80
2023-10-06T14:08:29.092Z,0.70
2023-10-06T14:10:59.621Z,0.90
2023-10-06T14:13:34.749Z,0.90
2023-10-06T14:16:11.846Z,1.00
2023-10-06T14:18:42.030Z,1.20
2023-10-06T14:21:14.585Z,0.80
2023-10-06T14:23:47.500Z,0.80
2023-10-06T14:26:20.036Z,0.80
2023-10-06T14:28:51.468Z,0.90
2023-10-06T14:31:35.899Z,0.70
2023-10-06T14:34:24.940Z,0.70
2023-10-06T14:36:58.820Z,0.60
2023-10-06T14:39:47.595Z,0.60
2023-10-06T14:42:35.809Z,0.60
2023-10-06T14:45:26.153Z,0.90
2023-10-06T14:47:56.823Z,0.60
2023-10-06T14:50:26.827Z,0.80
2023-10-06T14:52:56.974Z,0.70
2023-10-06T14:55:27.142Z,0.60
2023-10-06T14:57:57.044Z,0.80
2023-10-06T15:00:28.160Z,0.60
2023-10-06T15:02:58.392Z,0.80
2023-10-06T15:05:33.564Z,0.60
2023-10-06T15:08:03.933Z,0.80
2023-10-06T15:10:34.777Z,0.90
2023-10-06T15:13:05.050Z,0.90
2023-10-06T15:15:36.111Z,0.80
2023-10-06T15:18:16.220Z,1.00
2023-10-06T15:20:48.834Z,1.60
2023-10-06T15:23:20.007Z,0.70
2023-10-06T15:25:57.706Z,0.90
2023-10-06T15:28:38.089Z,1.00
2023-10-06T15:31:11.968Z,1.10
2023-10-06T15:33:45.231Z,1.10
2023-10-06T15:36:17.112Z,1.20
2023-10-06T15:38:47.222Z,1.00
2023-10-06T15:41:17.367Z,0.70
2023-10-06T15:43:47.500Z,1.00
2023-10-06T15:46:17.580Z,1.20
2023-10-06T15:48:47.528Z,2.20
2023-10-06T15:51:19.972Z,2.40
2023-10-06T15:53:51.839Z,2.00
2023-10-06T15:56:22.285Z,1.10
2023-10-06T15:58:52.400Z,1.50
2023-10-06T16:01:22.652Z,1.00
2023-10-06T16:03:53.482Z,0.80
2023-10-06T16:06:23.590Z,1.00
2023-10-06T16:08:56.792Z,1.20
2023-10-06T16:11:26.754Z,1.10
2023-10-06T16:13:56.810Z,1.10
2023-10-06T16:16:26.869Z,0.90
2023-10-06T16:18:56.859Z,1.20
2023-10-06T16:21:26.852Z,1.10
2023-10-06T16:23:56.764Z,1.20
2023-10-06T16:26:27.334Z,1.40
2023-10-06T16:28:57.279Z,1.30
2023-10-06T16:31:27.490Z,1.50
2023-10-06T16:33:58.429Z,1.40
2023-10-06T16:36:28.529Z,1.50
2023-10-06T16:38:58.995Z,1.70
2023-10-06T16:41:29.143Z,1.50
2023-10-06T16:43:59.598Z,1.00
2023-10-06T16:46:29.769Z,1.30
2023-10-06T16:48:59.888Z,1.30
2023-10-06T16:51:31.280Z,1.50
2023-10-06T16:54:01.502Z,1.30
2023-10-06T16:56:31.575Z,1.40
2023-10-06T16:59:01.774Z,1.20
2023-10-06T17:01:32.264Z,1.50
2023-10-06T17:04:05.958Z,1.40
2023-10-06T17:06:36.793Z,1.30
2023-10-06T17:09:16.014Z,1.30
2023-10-06T17:11:47.463Z,1.60
2023-10-06T17:14:17.548Z,1.70
2023-10-06T17:16:48.293Z,1.50
2023-10-06T17:19:18.520Z,1.30
2023-10-06T17:21:48.456Z,1.40
2023-10-06T17:24:18.532Z,1.30
2023-10-06T17:26:48.712Z,1.80
2023-10-06T17:29:18.655Z,1.80
2023-10-06T17:31:48.700Z,1.40
2023-10-06T17:34:19.182Z,1.30
2023-10-06T17:36:51.174Z,1.60
2023-10-06T17:39:26.933Z,1.40
2023-10-06T17:41:57.419Z,1.60
2023-10-06T17:44:28.872Z,1.00
2023-10-06T17:46:58.852Z,1.30
2023-10-06T17:49:30.500Z,1.10
2023-10-06T17:52:01.315Z,1.50
2023-10-06T17:54:32.162Z,1.40
2023-10-06T17:57:02.389Z,1.70
2023-10-06T17:59:32.740Z,1.40
2023-10-06T18:02:02.886Z,1.40
2023-10-06T18:04:34.426Z,1.00
2023-10-06T18:07:05.255Z,1.20
2023-10-06T18:09:35.446Z,1.20
2023-10-06T18:12:24.141Z,1.30
2023-10-06T18:14:55.892Z,1.40
2023-10-06T18:17:27.945Z,1.60
2023-10-06T18:19:57.995Z,1.20
2023-10-06T18:22:28.494Z,1.30
2023-10-06T18:24:58.681Z,0.80
2023-10-06T18:27:29.553Z,1.30
2023-10-06T18:29:59.551Z,1.40
2023-10-06T18:32:30.889Z,1.20
2023-10-06T18:35:01.552Z,1.20
2023-10-06T18:37:31.863Z,1.20
2023-10-06T18:40:01.777Z,1.40
2023-10-06T18:42:31.692Z,1.20
2023-10-06T18:45:01.912Z,1.40
2023-10-06T18:47:32.914Z,1.70
2023-10-06T18:50:10.737Z,1.90
2023-10-06T18:52:40.648Z,1.40
2023-10-06T18:55:12.680Z,1.60
2023-10-06T18:57:42.940Z,1.40
2023-10-06T19:00:14.868Z,1.60
2023-10-06T19:02:46.942Z,1.70
2023-10-06T19:05:16.980Z,1.60
2023-10-06T19:07:47.390Z,2.20
2023-10-06T19:10:17.489Z,1.80
2023-10-06T19:12:49.855Z,2.00
2023-10-06T19:15:19.883Z,1.90
2023-10-06T19:17:50.006Z,2.30
2023-10-06T19:20:20.232Z,2.40
2023-10-06T19:22:51.064Z,2.50
2023-10-06T19:25:21.144Z,2.20
2023-10-06T19:27:54.714Z,2.80
2023-10-06T19:30:25.530Z,2.00
2023-10-06T19:32:56.986Z,2.50
2023-10-06T19:35:28.071Z,2.70
2023-10-06T19:37:57.920Z,2.70
2023-10-06T19:40:28.206Z,2.60
2023-10-06T19:42:58.334Z,2.80
2023-10-06T19:45:28.808Z,2.10
2023-10-06T19:47:59.072Z,2.80
2023-10-06T19:50:29.054Z,2.80
2023-10-06T19:52:59.104Z,2.50
2023-10-06T19:55:29.240Z,2.00
2023-10-06T19:57:59.228Z,2.40
2023-10-06T20:00:29.386Z,2.10
2023-10-06T20:02:59.562Z,2.30
2023-10-06T20:05:29.766Z,2.50
2023-10-06T20:07:59.958Z,2.30
2023-10-06T20:10:31.564Z,2.50
2023-10-06T20:13:01.784Z,2.50
2023-10-06T20:15:32.442Z,2.90
2023-10-06T20:18:02.547Z,2.60
2023-10-06T20:20:33.067Z,2.50
2023-10-06T20:23:03.235Z,2.30
2023-10-06T20:25:34.111Z,2.40
2023-10-06T20:28:05.002Z,2.50
2023-10-06T20:30:35.316Z,2.40
2023-10-06T20:33:05.965Z,2.50
2023-10-06T20:35:36.253Z,2.80
2023-10-06T20:38:06.214Z,2.70
2023-10-06T20:40:36.162Z,2.70
2023-10-06T20:43:08.794Z,2.40
2023-10-06T20:45:38.730Z,2.60
2023-10-06T20:48:10.904Z,2.30
2023-10-06T20:50:44.258Z,2.60
2023-10-06T20:53:17.369Z,2.40
2023-10-06T20:55:47.502Z,2.50
2023-10-06T20:58:17.724Z,2.50
2023-10-06T21:00:48.780Z,2.50
2023-10-06T21:03:18.809Z,2.80
2023-10-06T21:05:49.419Z,2.60
2023-10-06T21:08:20.327Z,2.50
2023-10-06T21:10:51.084Z,2.20
2023-10-06T21:13:21.142Z,2.20
2023-10-06T21:15:51.717Z,2.60
2023-10-06T21:18:21.684Z,2.70
2023-10-06T21:20:51.714Z,2.20
2023-10-06T21:23:21.560Z,3.80
2023-10-06T21:25:53.328Z,2.80
2023-10-06T21:28:24.398Z,2.70
2023-10-06T21:30:54.338Z,3.20
2023-10-06T21:33:24.277Z,2.80
2023-10-06T21:35:54.181Z,2.40
2023-10-06T21:38:24.042Z,2.40
2023-10-06T21:40:59.021Z,2.30
2023-10-06T21:43:28.989Z,2.50
2023-10-06T21:45:59.055Z,2.20
2023-10-06T21:48:28.983Z,2.30
2023-10-06T21:50:58.960Z,2.20
2023-10-06T21:53:29.533Z,2.00
2023-10-06T21:56:10.674Z,2.40
2023-10-06T21:58:40.911Z,2.20
2023-10-06T22:01:14.870Z,1.80
2023-10-06T22:03:46.458Z,2.10
2023-10-06T22:06:22.001Z,2.30
2023-10-06T22:08:52.299Z,2.20
2023-10-06T22:11:25.600Z,2.30
2023-10-06T22:13:55.913Z,2.10
2023-10-06T22:16:28.371Z,2.10
2023-10-06T22:18:59.201Z,2.10
2023-10-06T22:21:29.152Z,2.30
2023-10-06T22:23:59.264Z,2.10
2023-10-06T22:26:29.413Z,2.20
2023-10-06T22:28:59.543Z,2.00
2023-10-06T22:31:29.636Z,2.00
2023-10-06T22:33:59.792Z,2.20
2023-10-06T22:36:29.969Z,2.00
2023-10-06T22:39:00.095Z,2.00
2023-10-06T22:41:30.013Z,2.10
2023-10-06T22:44:00.052Z,2.60
2023-10-06T22:46:30.367Z,2.00
2023-10-06T22:49:01.187Z,2.30
2023-10-06T22:51:31.306Z,2.20
2023-10-06T22:54:01.272Z,2.30
2023-10-06T22:56:31.180Z,2.40
2023-10-06T22:59:01.172Z,2.40
2023-10-06T23:01:31.679Z,2.20
2023-10-06T23:04:01.827Z,2.40
2023-10-06T23:06:31.843Z,2.10
2023-10-06T23:09:02.358Z,2.00
2023-10-06T23:11:32.451Z,2.30
2023-10-06T23:14:05.182Z,2.60
2023-10-06T23:16:35.969Z,2.30
2023-10-06T23:19:06.580Z,2.00
2023-10-06T23:21:36.481Z,2.40
2023-10-06T23:24:10.165Z,2.50
2023-10-06T23:26:40.452Z,2.20
2023-10-06T23:29:10.857Z,2.60
2023-10-06T23:31:41.492Z,2.30
2023-10-06T23:34:11.935Z,2.90
2023-10-06T23:36:46.772Z,2.40
2023-10-06T23:39:19.930Z,2.60
2023-10-06T23:41:52.258Z,2.70
2023-10-06T23:44:22.686Z,2.00
2023-10-06T23:46:54.347Z,2.30
2023-10-06T23:49:27.080Z,2.30
2023-10-06T23:51:57.173Z,2.50
2023-10-06T23:54:27.493Z,2.50
2023-10-06T23:56:58.724Z,2.50
2023-10-06T23:59:29.527Z,2.60
